100LL.CA
Aviation Fuel Pricing for Canadians
Please upgrade your browser - Tested with IE9, FireFox, Chrome, Safari

Fuel Airports Other Help
Prices Economy Info List METAR/TAF Kneeboard Help

Reference Airport: CASTLEGAR/WEST KOOTENAY REGIONAL, BC
N 49 17 46  W 117 37 57
Provinces to show:

CYCG CASTLEGAR/WEST KOOTENAY REGIONAL, BC
WEATHER
METARCYCG 230100Z 18009KT 15SM FEW029 OVC078 08/04 A3029 RMK SC1AC7 LAST STFD OBS/NXT 231400Z SLP273
TAFTAF CYCG 221840Z 2219/2301 17008KT P6SM FEW020 SCT030 OVC080 TEMPO 2219/2221 OVC020 FM222100 17008KT P6SM SCT040 BKN080 TEMPO 2221/2301 FEW020 BKN040 RMK NXT FCST BY 231600Z
OTHER SITES

FlightAware

FltPlan

Google Maps

SkyVector
FUEL
FBO 100LL
member
100LL
public
JETA MOGAS
Brilliant Aviation (2023-07-24)2.5622.400
Canada Flight Supplement - CYCG
(opens in new tab/window)


Please Send Updates!

Desktop Version ]  [ Mobile Version ]  [ Disclaimer ]